Time,TemperatureF,DewpointF,PressureIn,WindDirection,WindDirectionDegrees,WindSpeedMPH,WindSpeedGustMPH,Humidity,HourlyPrecipIn,Conditions,Clouds,dailyrainin,SolarRadiationWatts/m^2,SoftwareType,DateUTC
2013-11-13 00:01:00,44.0,27.0,-100.00,SW,224,6.0,6.0,50,0.00,,,0.00,0.000000,,2013-11-13 07:01:00,
2013-11-13 00:42:00,43.0,27.0,-100.00,WSW,254,3.0,10.0,52,0.00,,,0.00,0.000000,,2013-11-13 07:42:00,
2013-11-13 00:52:00,43.0,27.0,-100.00,WSW,254,3.0,10.0,52,0.00,,,0.00,0.000000,,2013-11-13 07:52:00,
2013-11-13 01:01:00,43.0,27.0,-100.00,WSW,254,3.0,10.0,52,0.00,,,0.00,0.000000,,2013-11-13 08:01:00,
2013-11-13 01:03:00,42.0,26.0,-100.00,SW,232,5.0,8.0,53,0.00,,,0.00,0.000000,,2013-11-13 08:03:00,
2013-11-13 01:22:00,42.0,26.0,-100.00,SW,232,5.0,8.0,53,0.00,,,0.00,0.000000,,2013-11-13 08:22:00,
2013-11-13 01:32:00,42.0,26.0,-100.00,SW,232,5.0,8.0,53,0.00,,,0.00,0.000000,,2013-11-13 08:32:00,
2013-11-13 01:42:00,42.0,26.0,-100.00,SW,232,5.0,8.0,53,0.00,,,0.00,0.000000,,2013-11-13 08:42:00,
2013-11-13 01:52:00,42.0,26.0,-100.00,SW,232,5.0,8.0,53,0.00,,,0.00,0.000000,,2013-11-13 08:52:00,
2013-11-13 02:22:00,43.0,26.0,-100.00,WSW,237,3.0,8.0,51,0.00,,,-99.99,0.000000,,2013-11-13 09:22:00,
2013-11-13 02:33:00,43.0,26.0,-100.00,WSW,237,3.0,8.0,51,0.00,,,-99.99,0.000000,,2013-11-13 09:33:00,
2013-11-13 02:43:00,43.0,26.0,-100.00,WSW,237,3.0,8.0,51,0.00,,,-99.99,0.000000,,2013-11-13 09:43:00,
2013-11-13 02:52:00,43.0,26.0,-100.00,WSW,237,3.0,8.0,51,0.00,,,-99.99,0.000000,,2013-11-13 09:52:00,
2013-11-13 03:02:00,43.0,26.0,-100.00,WSW,237,3.0,8.0,51,0.00,,,-99.99,0.000000,,2013-11-13 10:02:00,
2013-11-13 03:42:00,44.0,27.0,-100.00,SW,220,2.0,9.0,51,0.00,,,0.00,0.000000,,2013-11-13 10:42:00,
2013-11-13 03:52:00,44.0,27.0,-100.00,SW,220,2.0,9.0,51,0.00,,,0.00,0.000000,,2013-11-13 10:52:00,
2013-11-13 04:02:00,44.0,27.0,-100.00,SW,220,2.0,9.0,51,0.00,,,0.00,0.000000,,2013-11-13 11:02:00,
2013-11-13 04:42:00,42.0,25.0,-100.00,WSW,250,1.0,7.0,51,0.00,,,-99.99,0.000000,,2013-11-13 11:42:00,
2013-11-13 04:52:00,42.0,25.0,-100.00,WSW,250,1.0,7.0,51,0.00,,,-99.99,0.000000,,2013-11-13 11:52:00,
2013-11-13 05:01:00,42.0,25.0,-100.00,WSW,250,1.0,7.0,51,0.00,,,-99.99,0.000000,,2013-11-13 12:01:00,
2013-11-13 05:42:00,42.0,27.0,-100.00,WSW,237,3.0,9.0,54,0.00,,,0.00,0.000000,,2013-11-13 12:42:00,
2013-11-13 05:52:00,42.0,27.0,-100.00,WSW,237,3.0,9.0,54,0.00,,,0.00,0.000000,,2013-11-13 12:52:00,
2013-11-13 06:01:00,42.0,27.0,-100.00,WSW,237,3.0,9.0,54,0.00,,,0.00,0.000000,,2013-11-13 13:01:00,
2013-11-13 06:22:00,42.0,27.0,-100.00,WSW,255,1.0,9.0,55,0.00,,,0.00,0.000000,,2013-11-13 13:22:00,
2013-11-13 06:32:00,42.0,27.0,-100.00,WSW,255,1.0,9.0,55,0.00,,,0.00,0.000000,,2013-11-13 13:32:00,
2013-11-13 06:42:00,42.0,27.0,-100.00,WSW,255,1.0,9.0,55,0.00,,,0.00,0.000000,,2013-11-13 13:42:00,
2013-11-13 06:52:00,42.0,27.0,-100.00,WSW,255,1.0,9.0,55,0.00,,,0.00,0.000000,,2013-11-13 13:52:00,
2013-11-13 07:02:00,42.0,27.0,-100.00,WSW,255,1.0,9.0,55,0.00,,,0.00,0.000000,,2013-11-13 14:02:00,
2013-11-13 07:42:00,39.0,26.0,-100.00,NW,309,1.0,7.0,60,0.00,,,0.00,0.000000,,2013-11-13 14:42:00,
2013-11-13 07:53:00,39.0,26.0,-100.00,NW,309,1.0,7.0,60,0.00,,,0.00,0.000000,,2013-11-13 14:53:00,
2013-11-13 08:02:00,39.0,26.0,-100.00,NW,309,1.0,7.0,60,0.00,,,0.00,0.000000,,2013-11-13 15:02:00,
2013-11-13 08:22:00,41.0,28.0,-100.00,ESE,118,3.0,8.0,59,0.00,,,0.00,12.000000,,2013-11-13 15:22:00,
2013-11-13 08:33:00,41.0,28.0,-100.00,ESE,118,3.0,8.0,59,0.00,,,0.00,12.000000,,2013-11-13 15:33:00,
2013-11-13 09:43:00,42.0,27.0,-100.00,SW,224,4.0,11.0,56,-99.99,,,0.00,100.000000,,2013-11-13 16:43:00,
2013-11-13 09:53:00,42.0,27.0,-100.00,SW,224,4.0,11.0,56,-99.99,,,0.00,100.000000,,2013-11-13 16:53:00,
2013-11-13 10:02:00,42.0,27.0,-100.00,SW,224,4.0,11.0,56,-99.99,,,0.00,100.000000,,2013-11-13 17:02:00,
2013-11-13 12:22:00,53.0,31.0,-100.00,NE,43,2.0,8.0,42,0.00,,,0.00,459.000000,,2013-11-13 19:22:00,
2013-11-13 12:32:00,53.0,31.0,-100.00,NE,43,2.0,8.0,42,0.00,,,0.00,459.000000,,2013-11-13 19:32:00,
2013-11-13 12:42:00,53.0,31.0,-100.00,NE,43,2.0,8.0,42,0.00,,,0.00,459.000000,,2013-11-13 19:42:00,
2013-11-13 12:52:00,53.0,31.0,-100.00,NE,43,2.0,8.0,42,0.00,,,0.00,459.000000,,2013-11-13 19:52:00,
2013-11-13 13:02:00,53.0,31.0,-100.00,NE,43,2.0,8.0,42,0.00,,,0.00,459.000000,,2013-11-13 20:02:00,
2013-11-13 13:22:00,55.0,31.0,-100.00,NE,50,7.0,8.0,39,0.00,,,-99.99,521.000000,,2013-11-13 20:22:00,
2013-11-13 13:32:00,55.0,31.0,-100.00,NE,50,7.0,8.0,39,0.00,,,-99.99,521.000000,,2013-11-13 20:32:00,
2013-11-13 13:42:00,55.0,31.0,-100.00,NE,50,7.0,8.0,39,0.00,,,-99.99,521.000000,,2013-11-13 20:42:00,
2013-11-13 13:52:00,55.0,31.0,-100.00,NE,50,7.0,8.0,39,0.00,,,-99.99,521.000000,,2013-11-13 20:52:00,
2013-11-13 14:01:00,55.0,31.0,-100.00,NE,50,7.0,8.0,39,0.00,,,-99.99,521.000000,,2013-11-13 21:01:00,
2013-11-13 14:03:00,54.0,29.0,-100.00,East,79,6.0,11.0,38,0.00,,,0.00,503.000000,,2013-11-13 21:03:00,
2013-11-13 14:22:00,54.0,29.0,-100.00,East,79,6.0,11.0,38,0.00,,,0.00,503.000000,,2013-11-13 21:22:00,
2013-11-13 14:33:00,54.0,29.0,-100.00,East,79,6.0,11.0,38,0.00,,,0.00,503.000000,,2013-11-13 21:33:00,
2013-11-13 14:43:00,54.0,29.0,-100.00,East,79,6.0,11.0,38,0.00,,,0.00,503.000000,,2013-11-13 21:43:00,
2013-11-13 14:53:00,54.0,29.0,-100.00,East,79,6.0,11.0,38,0.00,,,0.00,503.000000,,2013-11-13 21:53:00,
2013-11-13 15:23:00,55.0,26.0,-100.00,NW,304,12.0,21.0,32,0.00,,,0.00,268.000000,,2013-11-13 22:23:00,
2013-11-13 15:33:00,55.0,26.0,-100.00,NW,304,12.0,21.0,32,0.00,,,0.00,268.000000,,2013-11-13 22:33:00,
2013-11-13 15:42:00,55.0,26.0,-100.00,NW,304,12.0,21.0,32,0.00,,,0.00,268.000000,,2013-11-13 22:42:00,
2013-11-13 15:53:00,55.0,26.0,-100.00,NW,304,12.0,21.0,32,0.00,,,0.00,268.000000,,2013-11-13 22:53:00,
2013-11-13 16:02:00,55.0,26.0,-100.00,NW,304,12.0,21.0,32,0.00,,,0.00,268.000000,,2013-11-13 23:02:00,
2013-11-13 16:22:00,52.0,25.0,-100.00,NNW,328,8.0,20.0,35,0.00,,,0.00,61.000000,,2013-11-13 23:22:00,
2013-11-13 16:32:00,52.0,25.0,-100.00,NNW,328,8.0,20.0,35,0.00,,,0.00,61.000000,,2013-11-13 23:32:00,
2013-11-13 16:43:00,52.0,25.0,-100.00,NNW,328,8.0,20.0,35,0.00,,,0.00,61.000000,,2013-11-13 23:43:00,
2013-11-13 16:53:00,52.0,25.0,-100.00,NNW,328,8.0,20.0,35,0.00,,,0.00,61.000000,,2013-11-13 23:53:00,
2013-11-13 17:02:00,52.0,25.0,-100.00,NNW,328,8.0,20.0,35,0.00,,,0.00,61.000000,,2013-11-14 00:02:00,
2013-11-13 17:22:00,46.0,21.0,-100.00,NNE,33,8.0,17.0,37,0.00,,,0.00,24.000000,,2013-11-14 00:22:00,
2013-11-13 17:32:00,46.0,21.0,-100.00,NNE,33,8.0,17.0,37,0.00,,,0.00,24.000000,,2013-11-14 00:32:00,
2013-11-13 17:42:00,46.0,21.0,-100.00,NNE,33,8.0,17.0,37,0.00,,,0.00,24.000000,,2013-11-14 00:42:00,
2013-11-13 17:52:00,46.0,21.0,-100.00,NNE,33,8.0,17.0,37,0.00,,,0.00,24.000000,,2013-11-14 00:52:00,
2013-11-13 18:02:00,46.0,21.0,-100.00,NNE,33,8.0,17.0,37,0.00,,,0.00,24.000000,,2013-11-14 01:02:00,
2013-11-13 18:42:00,45.0,20.0,-100.00,WNW,288,3.0,17.0,37,0.00,,,0.00,0.000000,,2013-11-14 01:42:00,
2013-11-13 18:52:00,45.0,20.0,-100.00,WNW,288,3.0,17.0,37,0.00,,,0.00,0.000000,,2013-11-14 01:52:00,
2013-11-13 19:01:00,45.0,20.0,-100.00,WNW,288,3.0,17.0,37,0.00,,,0.00,0.000000,,2013-11-14 02:01:00,
2013-11-13 19:53:00,43.0,17.0,-100.00,West,262,4.0,17.0,35,0.00,,,0.00,0.000000,,2013-11-14 02:53:00,
2013-11-13 20:01:00,43.0,17.0,-100.00,West,262,4.0,17.0,35,0.00,,,0.00,0.000000,,2013-11-14 03:01:00,
2013-11-13 20:03:00,44.0,19.0,-100.00,SW,225,0.0,22.0,37,0.00,,,0.00,0.000000,,2013-11-14 03:03:00,
2013-11-13 20:44:00,44.0,19.0,-100.00,SW,225,0.0,22.0,37,0.00,,,0.00,0.000000,,2013-11-14 03:44:00,
2013-11-13 20:54:00,44.0,19.0,-100.00,SW,225,0.0,22.0,37,0.00,,,0.00,0.000000,,2013-11-14 03:54:00,
2013-11-13 21:03:00,41.0,20.0,-100.00,ESE,109,2.0,10.0,42,0.00,,,0.00,0.000000,,2013-11-14 04:03:00,
2013-11-13 21:43:00,41.0,20.0,-100.00,ESE,109,2.0,10.0,42,0.00,,,0.00,0.000000,,2013-11-14 04:43:00,
2013-11-13 21:54:00,41.0,20.0,-100.00,ESE,109,2.0,10.0,42,0.00,,,0.00,0.000000,,2013-11-14 04:54:00,
2013-11-13 22:03:00,42.0,18.0,-100.00,WNW,287,8.0,12.0,38,0.00,,,0.00,0.000000,,2013-11-14 05:03:00,
2013-11-13 22:44:00,42.0,18.0,-100.00,WNW,287,8.0,12.0,38,0.00,,,0.00,0.000000,,2013-11-14 05:44:00,
2013-11-13 22:53:00,42.0,18.0,-100.00,WNW,287,8.0,12.0,38,0.00,,,0.00,0.000000,,2013-11-14 05:53:00,
2013-11-13 23:22:00,42.0,19.0,-100.00,SW,217,5.0,18.0,40,0.00,,,0.00,0.000000,,2013-11-14 06:22:00,
2013-11-13 23:32:00,42.0,19.0,-100.00,SW,217,5.0,18.0,40,0.00,,,0.00,0.000000,,2013-11-14 06:32:00,
2013-11-13 23:42:00,42.0,19.0,-100.00,SW,217,5.0,18.0,40,0.00,,,0.00,0.000000,,2013-11-14 06:42:00,
2013-11-13 23:52:00,42.0,19.0,-100.00,SW,217,5.0,18.0,40,0.00,,,0.00,0.000000,,2013-11-14 06:52:00,